Brewood, United Kingdom
Current Conditions -  °F | °C
As of 1:50 PM on Sunday 25 Jan 2015 (Local Time) from EGOS Reporting Station
Overcast Overcast  
Wind Chill: 43°   Ceiling: 1600
Heat Index: 48°   Visibility: 6mi
Dew Point: 43°   Wind: 14mph
Humidity: 82%   Direction: 210°SSW
Pressure: 30.27"   Gusts: NA
Location:  52.68°N, 2.17°W
Report Text: EGOS 251350Z AUTO 21012KT 9999 OVC016/// 09/06 Q1025
Loading
Personal Weather Stations






























Interactive Weather Map New forecast layout! Learn more

10-Day Weather Forecast

Advertisements
Track Severe Weather on mobile